sensor_id;sensor_type;location;lat;lon;timestamp;temperature;humidity
79055;DHT22;68452;47.186;-1.528;2023-05-10T00:00:11;13.30;65.80
79055;DHT22;68452;47.186;-1.528;2023-05-10T00:02:37;13.30;65.70
79055;DHT22;68452;47.186;-1.528;2023-05-10T00:05:04;13.30;65.70
79055;DHT22;68452;47.186;-1.528;2023-05-10T00:07:30;13.30;66.20
79055;DHT22;68452;47.186;-1.528;2023-05-10T00:09:56;13.30;66.10
79055;DHT22;68452;47.186;-1.528;2023-05-10T00:12:22;13.20;65.80
79055;DHT22;68452;47.186;-1.528;2023-05-10T00:14:48;13.20;66.00
79055;DHT22;68452;47.186;-1.528;2023-05-10T00:17:14;13.20;66.20
79055;DHT22;68452;47.186;-1.528;2023-05-10T00:19:40;13.20;66.20
79055;DHT22;68452;47.186;-1.528;2023-05-10T00:22:06;13.20;66.20
79055;DHT22;68452;47.186;-1.528;2023-05-10T00:24:32;13.20;65.50
79055;DHT22;68452;47.186;-1.528;2023-05-10T00:26:58;13.20;65.60
79055;DHT22;68452;47.186;-1.528;2023-05-10T00:29:24;13.20;65.20
79055;DHT22;68452;47.186;-1.528;2023-05-10T00:31:50;13.20;65.30
79055;DHT22;68452;47.186;-1.528;2023-05-10T00:34:16;13.20;65.80
79055;DHT22;68452;47.186;-1.528;2023-05-10T00:36:42;13.20;65.50
79055;DHT22;68452;47.186;-1.528;2023-05-10T00:39:08;13.10;65.70
79055;DHT22;68452;47.186;-1.528;2023-05-10T00:41:33;13.10;66.30
79055;DHT22;68452;47.186;-1.528;2023-05-10T00:43:59;13.10;65.90
79055;DHT22;68452;47.186;-1.528;2023-05-10T00:46:26;13.00;66.10
79055;DHT22;68452;47.186;-1.528;2023-05-10T00:48:52;13.00;66.70
79055;DHT22;68452;47.186;-1.528;2023-05-10T00:51:18;13.00;66.80
79055;DHT22;68452;47.186;-1.528;2023-05-10T00:53:45;12.80;67.10
79055;DHT22;68452;47.186;-1.528;2023-05-10T00:56:12;12.80;67.40
79055;DHT22;68452;47.186;-1.528;2023-05-10T00:58:38;12.70;67.70
79055;DHT22;68452;47.186;-1.528;2023-05-10T01:01:05;12.70;68.10
79055;DHT22;68452;47.186;-1.528;2023-05-10T01:03:32;12.70;68.30
79055;DHT22;68452;47.186;-1.528;2023-05-10T01:05:58;12.70;68.30
79055;DHT22;68452;47.186;-1.528;2023-05-10T01:08:25;12.60;68.40
79055;DHT22;68452;47.186;-1.528;2023-05-10T01:10:51;12.60;68.40
79055;DHT22;68452;47.186;-1.528;2023-05-10T01:13:31;12.60;68.50
79055;DHT22;68452;47.186;-1.528;2023-05-10T01:15:58;12.60;68.50
79055;DHT22;68452;47.186;-1.528;2023-05-10T01:18:25;12.60;68.20
79055;DHT22;68452;47.186;-1.528;2023-05-10T01:21:19;12.60;68.60
79055;DHT22;68452;47.186;-1.528;2023-05-10T01:33:52;12.20;69.40
79055;DHT22;68452;47.186;-1.528;2023-05-10T01:36:30;12.20;70.30
79055;DHT22;68452;47.186;-1.528;2023-05-10T01:39:25;12.20;70.30
79055;DHT22;68452;47.186;-1.528;2023-05-10T01:47:54;12.30;69.90
79055;DHT22;68452;47.186;-1.528;2023-05-10T01:49:56;12.30;69.90
79055;DHT22;68452;47.186;-1.528;2023-05-10T01:52:32;12.30;69.50
79055;DHT22;68452;47.186;-1.528;2023-05-10T01:55:11;12.30;69.60
79055;DHT22;68452;47.186;-1.528;2023-05-10T01:57:40;12.40;69.20
79055;DHT22;68452;47.186;-1.528;2023-05-10T02:00:09;12.30;69.20
79055;DHT22;68452;47.186;-1.528;2023-05-10T02:02:39;12.40;69.30
79055;DHT22;68452;47.186;-1.528;2023-05-10T02:05:08;12.40;69.10
79055;DHT22;68452;47.186;-1.528;2023-05-10T02:07:36;12.30;69.20
79055;DHT22;68452;47.186;-1.528;2023-05-10T02:10:04;12.30;69.40
79055;DHT22;68452;47.186;-1.528;2023-05-10T02:12:32;12.30;69.40
79055;DHT22;68452;47.186;-1.528;2023-05-10T02:15:03;12.30;69.40
79055;DHT22;68452;47.186;-1.528;2023-05-10T02:17:32;12.30;69.60
79055;DHT22;68452;47.186;-1.528;2023-05-10T02:19:59;12.20;69.70
79055;DHT22;68452;47.186;-1.528;2023-05-10T02:22:27;12.20;69.90
79055;DHT22;68452;47.186;-1.528;2023-05-10T02:24:55;12.20;70.00
79055;DHT22;68452;47.186;-1.528;2023-05-10T02:27:23;12.10;70.10
79055;DHT22;68452;47.186;-1.528;2023-05-10T02:29:51;12.10;70.40
79055;DHT22;68452;47.186;-1.528;2023-05-10T02:32:17;12.10;70.30
79055;DHT22;68452;47.186;-1.528;2023-05-10T02:34:45;12.20;70.10
79055;DHT22;68452;47.186;-1.528;2023-05-10T02:37:19;12.10;70.10
79055;DHT22;68452;47.186;-1.528;2023-05-10T02:39:47;12.10;70.10
79055;DHT22;68452;47.186;-1.528;2023-05-10T02:42:36;12.00;70.20
79055;DHT22;68452;47.186;-1.528;2023-05-10T02:45:07;12.00;70.50
79055;DHT22;68452;47.186;-1.528;2023-05-10T02:47:33;12.00;70.70
79055;DHT22;68452;47.186;-1.528;2023-05-10T02:49:59;11.90;70.70
79055;DHT22;68452;47.186;-1.528;2023-05-10T02:52:28;11.90;70.80
79055;DHT22;68452;47.186;-1.528;2023-05-10T02:54:57;11.90;70.70
79055;DHT22;68452;47.186;-1.528;2023-05-10T02:57:33;11.90;70.80
79055;DHT22;68452;47.186;-1.528;2023-05-10T02:59:59;11.90;70.90
79055;DHT22;68452;47.186;-1.528;2023-05-10T03:02:26;11.80;70.90
79055;DHT22;68452;47.186;-1.528;2023-05-10T03:04:52;11.80;71.00
79055;DHT22;68452;47.186;-1.528;2023-05-10T03:07:18;11.70;71.20
79055;DHT22;68452;47.186;-1.528;2023-05-10T03:09:50;11.70;71.10
79055;DHT22;68452;47.186;-1.528;2023-05-10T03:15:49;11.70;71.30
79055;DHT22;68452;47.186;-1.528;2023-05-10T03:18:23;11.70;71.20
79055;DHT22;68452;47.186;-1.528;2023-05-10T03:20:59;11.60;71.30
79055;DHT22;68452;47.186;-1.528;2023-05-10T03:23:39;11.60;71.70
79055;DHT22;68452;47.186;-1.528;2023-05-10T03:26:07;11.60;71.70
79055;DHT22;68452;47.186;-1.528;2023-05-10T03:28:34;11.60;71.70
79055;DHT22;68452;47.186;-1.528;2023-05-10T03:31:02;11.60;71.60
79055;DHT22;68452;47.186;-1.528;2023-05-10T03:33:29;11.50;71.50
79055;DHT22;68452;47.186;-1.528;2023-05-10T03:35:54;11.50;71.80
79055;DHT22;68452;47.186;-1.528;2023-05-10T03:38:20;11.60;71.40
79055;DHT22;68452;47.186;-1.528;2023-05-10T03:40:46;11.60;71.30
79055;DHT22;68452;47.186;-1.528;2023-05-10T03:43:12;11.50;71.50
79055;DHT22;68452;47.186;-1.528;2023-05-10T03:45:38;11.50;71.70
79055;DHT22;68452;47.186;-1.528;2023-05-10T03:48:04;11.60;71.60
79055;DHT22;68452;47.186;-1.528;2023-05-10T03:50:30;11.60;71.70
79055;DHT22;68452;47.186;-1.528;2023-05-10T03:52:55;11.50;72.00
79055;DHT22;68452;47.186;-1.528;2023-05-10T03:55:23;11.60;72.10
79055;DHT22;68452;47.186;-1.528;2023-05-10T03:57:48;11.60;72.00
79055;DHT22;68452;47.186;-1.528;2023-05-10T04:00:19;11.50;72.10
79055;DHT22;68452;47.186;-1.528;2023-05-10T04:02:45;11.50;71.80
79055;DHT22;68452;47.186;-1.528;2023-05-10T04:05:11;11.40;72.20
79055;DHT22;68452;47.186;-1.528;2023-05-10T04:07:38;11.40;72.10
79055;DHT22;68452;47.186;-1.528;2023-05-10T04:10:04;11.50;71.80
79055;DHT22;68452;47.186;-1.528;2023-05-10T04:12:30;11.50;71.80
79055;DHT22;68452;47.186;-1.528;2023-05-10T04:14:55;11.50;71.90
79055;DHT22;68452;47.186;-1.528;2023-05-10T04:17:21;11.40;71.90
79055;DHT22;68452;47.186;-1.528;2023-05-10T04:19:47;11.30;72.10
79055;DHT22;68452;47.186;-1.528;2023-05-10T04:22:13;11.30;72.00
79055;DHT22;68452;47.186;-1.528;2023-05-10T04:24:38;11.30;72.00
79055;DHT22;68452;47.186;-1.528;2023-05-10T04:27:04;11.20;72.10
79055;DHT22;68452;47.186;-1.528;2023-05-10T04:29:30;11.30;72.20
79055;DHT22;68452;47.186;-1.528;2023-05-10T04:31:56;11.30;72.20
79055;DHT22;68452;47.186;-1.528;2023-05-10T04:34:22;11.30;72.20
79055;DHT22;68452;47.186;-1.528;2023-05-10T04:36:48;11.20;72.60
79055;DHT22;68452;47.186;-1.528;2023-05-10T04:39:13;11.30;72.60
79055;DHT22;68452;47.186;-1.528;2023-05-10T04:41:39;11.40;72.80
79055;DHT22;68452;47.186;-1.528;2023-05-10T04:44:05;11.40;73.00
79055;DHT22;68452;47.186;-1.528;2023-05-10T04:46:32;11.50;73.00
79055;DHT22;68452;47.186;-1.528;2023-05-10T04:48:58;11.60;73.50
79055;DHT22;68452;47.186;-1.528;2023-05-10T04:51:23;11.70;73.40
79055;DHT22;68452;47.186;-1.528;2023-05-10T04:53:49;11.80;73.60
79055;DHT22;68452;47.186;-1.528;2023-05-10T04:56:16;11.90;73.50
79055;DHT22;68452;47.186;-1.528;2023-05-10T04:58:42;12.00;73.30
79055;DHT22;68452;47.186;-1.528;2023-05-10T05:01:08;12.10;73.20
79055;DHT22;68452;47.186;-1.528;2023-05-10T05:03:36;12.20;73.30
79055;DHT22;68452;47.186;-1.528;2023-05-10T05:06:02;12.30;73.30
79055;DHT22;68452;47.186;-1.528;2023-05-10T05:08:28;12.30;73.00
79055;DHT22;68452;47.186;-1.528;2023-05-10T05:10:54;12.30;73.50
79055;DHT22;68452;47.186;-1.528;2023-05-10T05:13:20;12.30;73.60
79055;DHT22;68452;47.186;-1.528;2023-05-10T05:15:46;12.30;73.50
79055;DHT22;68452;47.186;-1.528;2023-05-10T05:18:12;12.30;73.60
79055;DHT22;68452;47.186;-1.528;2023-05-10T05:20:37;12.40;73.60
79055;DHT22;68452;47.186;-1.528;2023-05-10T05:23:03;12.30;73.60
79055;DHT22;68452;47.186;-1.528;2023-05-10T05:25:29;12.40;73.40
79055;DHT22;68452;47.186;-1.528;2023-05-10T05:27:55;12.30;73.50
79055;DHT22;68452;47.186;-1.528;2023-05-10T05:30:21;12.40;73.60
79055;DHT22;68452;47.186;-1.528;2023-05-10T05:32:47;12.40;73.70
79055;DHT22;68452;47.186;-1.528;2023-05-10T05:35:13;12.50;73.60
79055;DHT22;68452;47.186;-1.528;2023-05-10T05:37:39;12.60;73.50
79055;DHT22;68452;47.186;-1.528;2023-05-10T05:40:06;12.70;73.40
79055;DHT22;68452;47.186;-1.528;2023-05-10T05:42:32;12.80;73.40
79055;DHT22;68452;47.186;-1.528;2023-05-10T05:44:58;12.80;73.40
79055;DHT22;68452;47.186;-1.528;2023-05-10T05:47:24;12.90;73.10
79055;DHT22;68452;47.186;-1.528;2023-05-10T05:49:50;13.00;73.00
79055;DHT22;68452;47.186;-1.528;2023-05-10T05:52:16;13.10;72.80
79055;DHT22;68452;47.186;-1.528;2023-05-10T05:54:42;13.10;72.60
79055;DHT22;68452;47.186;-1.528;2023-05-10T05:57:08;13.20;72.80
79055;DHT22;68452;47.186;-1.528;2023-05-10T05:59:34;13.20;72.80
79055;DHT22;68452;47.186;-1.528;2023-05-10T06:02:00;13.30;72.50
79055;DHT22;68452;47.186;-1.528;2023-05-10T06:04:26;13.30;72.40
79055;DHT22;68452;47.186;-1.528;2023-05-10T06:06:52;13.30;72.40
79055;DHT22;68452;47.186;-1.528;2023-05-10T06:09:17;13.40;72.20
79055;DHT22;68452;47.186;-1.528;2023-05-10T06:11:43;13.40;72.00
79055;DHT22;68452;47.186;-1.528;2023-05-10T06:14:10;13.50;72.20
79055;DHT22;68452;47.186;-1.528;2023-05-10T06:16:36;13.60;72.00
79055;DHT22;68452;47.186;-1.528;2023-05-10T06:19:02;13.80;72.20
79055;DHT22;68452;47.186;-1.528;2023-05-10T06:21:28;14.00;71.40
79055;DHT22;68452;47.186;-1.528;2023-05-10T06:23:54;14.00;70.70
79055;DHT22;68452;47.186;-1.528;2023-05-10T06:26:20;14.00;71.00
79055;DHT22;68452;47.186;-1.528;2023-05-10T06:28:46;14.00;71.60
79055;DHT22;68452;47.186;-1.528;2023-05-10T06:31:12;14.00;72.20
79055;DHT22;68452;47.186;-1.528;2023-05-10T06:33:37;13.90;73.00
79055;DHT22;68452;47.186;-1.528;2023-05-10T06:36:03;13.90;73.70
79055;DHT22;68452;47.186;-1.528;2023-05-10T06:38:29;13.90;73.90
79055;DHT22;68452;47.186;-1.528;2023-05-10T06:40:55;13.90;73.70
79055;DHT22;68452;47.186;-1.528;2023-05-10T06:43:21;13.90;74.00
79055;DHT22;68452;47.186;-1.528;2023-05-10T06:45:48;14.00;74.30
79055;DHT22;68452;47.186;-1.528;2023-05-10T06:48:13;14.00;74.30
79055;DHT22;68452;47.186;-1.528;2023-05-10T06:50:39;14.00;74.00
79055;DHT22;68452;47.186;-1.528;2023-05-10T06:53:05;13.90;74.20
79055;DHT22;68452;47.186;-1.528;2023-05-10T06:55:31;14.00;74.40
79055;DHT22;68452;47.186;-1.528;2023-05-10T06:57:57;14.10;74.40
79055;DHT22;68452;47.186;-1.528;2023-05-10T07:00:23;14.20;74.20
79055;DHT22;68452;47.186;-1.528;2023-05-10T07:02:48;14.40;73.80
79055;DHT22;68452;47.186;-1.528;2023-05-10T07:05:14;14.50;72.80
79055;DHT22;68452;47.186;-1.528;2023-05-10T07:07:40;14.60;73.10
79055;DHT22;68452;47.186;-1.528;2023-05-10T07:10:07;14.90;73.40
79055;DHT22;68452;47.186;-1.528;2023-05-10T07:12:33;15.00;72.00
79055;DHT22;68452;47.186;-1.528;2023-05-10T07:14:59;15.10;71.30
79055;DHT22;68452;47.186;-1.528;2023-05-10T07:17:24;15.10;71.10
79055;DHT22;68452;47.186;-1.528;2023-05-10T07:19:50;15.10;70.40
79055;DHT22;68452;47.186;-1.528;2023-05-10T07:22:16;15.20;71.70
79055;DHT22;68452;47.186;-1.528;2023-05-10T07:24:42;15.30;70.40
79055;DHT22;68452;47.186;-1.528;2023-05-10T07:27:08;15.60;70.90
79055;DHT22;68452;47.186;-1.528;2023-05-10T07:29:35;16.00;69.80
79055;DHT22;68452;47.186;-1.528;2023-05-10T07:32:01;16.00;68.10
79055;DHT22;68452;47.186;-1.528;2023-05-10T07:34:27;15.90;67.40
79055;DHT22;68452;47.186;-1.528;2023-05-10T07:36:53;15.80;67.00
79055;DHT22;68452;47.186;-1.528;2023-05-10T07:39:19;15.90;68.10
79055;DHT22;68452;47.186;-1.528;2023-05-10T07:41:46;16.20;66.90
79055;DHT22;68452;47.186;-1.528;2023-05-10T07:44:12;16.40;66.70
79055;DHT22;68452;47.186;-1.528;2023-05-10T07:46:38;16.40;65.00
79055;DHT22;68452;47.186;-1.528;2023-05-10T07:49:04;16.40;65.60
79055;DHT22;68452;47.186;-1.528;2023-05-10T07:51:29;16.40;66.60
79055;DHT22;68452;47.186;-1.528;2023-05-10T07:53:55;16.30;65.70
79055;DHT22;68452;47.186;-1.528;2023-05-10T07:56:29;16.30;64.50
79055;DHT22;68452;47.186;-1.528;2023-05-10T07:58:56;16.40;66.50
79055;DHT22;68452;47.186;-1.528;2023-05-10T08:01:22;16.50;65.60
79055;DHT22;68452;47.186;-1.528;2023-05-10T08:03:49;16.70;63.40
79055;DHT22;68452;47.186;-1.528;2023-05-10T08:06:17;16.80;63.50
79055;DHT22;68452;47.186;-1.528;2023-05-10T08:08:43;16.80;61.40
79055;DHT22;68452;47.186;-1.528;2023-05-10T08:11:15;16.80;62.40
79055;DHT22;68452;47.186;-1.528;2023-05-10T08:13:41;17.00;63.40
79055;DHT22;68452;47.186;-1.528;2023-05-10T08:16:07;17.00;62.10
79055;DHT22;68452;47.186;-1.528;2023-05-10T08:18:33;17.10;62.30
79055;DHT22;68452;47.186;-1.528;2023-05-10T08:20:59;17.20;60.90
79055;DHT22;68452;47.186;-1.528;2023-05-10T08:23:25;17.10;59.80
79055;DHT22;68452;47.186;-1.528;2023-05-10T08:25:51;16.90;61.00
79055;DHT22;68452;47.186;-1.528;2023-05-10T08:28:17;16.80;61.30
79055;DHT22;68452;47.186;-1.528;2023-05-10T08:30:43;17.00;61.50
79055;DHT22;68452;47.186;-1.528;2023-05-10T08:33:09;17.10;59.80
79055;DHT22;68452;47.186;-1.528;2023-05-10T08:35:34;17.10;60.50
79055;DHT22;68452;47.186;-1.528;2023-05-10T08:38:01;17.30;60.30
79055;DHT22;68452;47.186;-1.528;2023-05-10T08:40:26;17.40;59.50
79055;DHT22;68452;47.186;-1.528;2023-05-10T08:43:00;17.50;59.50
79055;DHT22;68452;47.186;-1.528;2023-05-10T08:45:33;17.80;60.50
79055;DHT22;68452;47.186;-1.528;2023-05-10T08:48:02;17.90;58.50
79055;DHT22;68452;47.186;-1.528;2023-05-10T08:50:31;17.90;58.00
79055;DHT22;68452;47.186;-1.528;2023-05-10T08:53:00;17.80;59.80
79055;DHT22;68452;47.186;-1.528;2023-05-10T08:55:27;17.80;58.60
79055;DHT22;68452;47.186;-1.528;2023-05-10T08:57:53;17.70;59.60
79055;DHT22;68452;47.186;-1.528;2023-05-10T09:00:19;17.60;60.40
79055;DHT22;68452;47.186;-1.528;2023-05-10T09:02:45;17.40;60.00
79055;DHT22;68452;47.186;-1.528;2023-05-10T09:05:12;17.20;60.50
79055;DHT22;68452;47.186;-1.528;2023-05-10T09:07:38;17.10;61.20
79055;DHT22;68452;47.186;-1.528;2023-05-10T09:10:04;17.10;61.20
79055;DHT22;68452;47.186;-1.528;2023-05-10T09:12:30;17.10;60.50
79055;DHT22;68452;47.186;-1.528;2023-05-10T09:14:58;17.20;60.70
79055;DHT22;68452;47.186;-1.528;2023-05-10T09:17:25;17.10;63.60
79055;DHT22;68452;47.186;-1.528;2023-05-10T09:20:00;16.70;64.60
79055;DHT22;68452;47.186;-1.528;2023-05-10T09:22:27;16.40;65.80
79055;DHT22;68452;47.186;-1.528;2023-05-10T09:25:12;16.00;66.40
79055;DHT22;68452;47.186;-1.528;2023-05-10T09:27:44;16.10;67.50
79055;DHT22;68452;47.186;-1.528;2023-05-10T09:30:14;16.10;68.70
79055;DHT22;68452;47.186;-1.528;2023-05-10T09:32:45;16.00;67.90
79055;DHT22;68452;47.186;-1.528;2023-05-10T09:35:15;16.00;67.90
79055;DHT22;68452;47.186;-1.528;2023-05-10T09:37:45;15.90;67.60
79055;DHT22;68452;47.186;-1.528;2023-05-10T09:40:18;15.90;67.80
79055;DHT22;68452;47.186;-1.528;2023-05-10T09:43:10;15.80;68.30
79055;DHT22;68452;47.186;-1.528;2023-05-10T09:45:36;15.70;70.10
79055;DHT22;68452;47.186;-1.528;2023-05-10T09:48:03;15.70;69.70
79055;DHT22;68452;47.186;-1.528;2023-05-10T09:50:29;15.60;68.90
79055;DHT22;68452;47.186;-1.528;2023-05-10T09:52:57;15.70;71.00
79055;DHT22;68452;47.186;-1.528;2023-05-10T09:55:39;15.70;70.50
79055;DHT22;68452;47.186;-1.528;2023-05-10T09:58:05;15.70;71.60
79055;DHT22;68452;47.186;-1.528;2023-05-10T10:00:40;15.50;72.90
79055;DHT22;68452;47.186;-1.528;2023-05-10T10:03:11;15.30;74.50
79055;DHT22;68452;47.186;-1.528;2023-05-10T10:05:40;15.30;75.00
79055;DHT22;68452;47.186;-1.528;2023-05-10T10:08:08;15.30;75.70
79055;DHT22;68452;47.186;-1.528;2023-05-10T10:10:34;15.30;76.00
79055;DHT22;68452;47.186;-1.528;2023-05-10T10:13:00;15.40;75.80
79055;DHT22;68452;47.186;-1.528;2023-05-10T10:15:26;15.30;75.40
79055;DHT22;68452;47.186;-1.528;2023-05-10T10:17:53;15.40;76.10
79055;DHT22;68452;47.186;-1.528;2023-05-10T10:20:22;15.60;75.60
79055;DHT22;68452;47.186;-1.528;2023-05-10T10:22:48;15.80;75.40
79055;DHT22;68452;47.186;-1.528;2023-05-10T10:25:18;15.90;74.80
79055;DHT22;68452;47.186;-1.528;2023-05-10T10:30:41;15.10;82.80
79055;DHT22;68452;47.186;-1.528;2023-05-10T10:36:12;14.60;85.00
79055;DHT22;68452;47.186;-1.528;2023-05-10T10:44:24;14.80;85.70
79055;DHT22;68452;47.186;-1.528;2023-05-10T10:47:07;14.80;84.90
79055;DHT22;68452;47.186;-1.528;2023-05-10T10:54:54;15.00;85.20
79055;DHT22;68452;47.186;-1.528;2023-05-10T10:57:22;15.20;84.20
79055;DHT22;68452;47.186;-1.528;2023-05-10T10:59:48;15.50;84.70
79055;DHT22;68452;47.186;-1.528;2023-05-10T11:02:46;15.80;84.80
79055;DHT22;68452;47.186;-1.528;2023-05-10T11:07:59;16.50;82.40
79055;DHT22;68452;47.186;-1.528;2023-05-10T11:10:26;16.80;79.00
79055;DHT22;68452;47.186;-1.528;2023-05-10T11:12:58;16.70;76.60
79055;DHT22;68452;47.186;-1.528;2023-05-10T11:15:37;16.70;77.80
79055;DHT22;68452;47.186;-1.528;2023-05-10T11:18:25;16.70;75.20
79055;DHT22;68452;47.186;-1.528;2023-05-10T11:20:52;16.60;75.00
79055;DHT22;68452;47.186;-1.528;2023-05-10T11:23:18;16.50;74.80
79055;DHT22;68452;47.186;-1.528;2023-05-10T11:25:45;16.40;75.00
79055;DHT22;68452;47.186;-1.528;2023-05-10T11:28:16;16.30;73.20
79055;DHT22;68452;47.186;-1.528;2023-05-10T11:30:43;16.30;74.30
79055;DHT22;68452;47.186;-1.528;2023-05-10T11:33:11;16.20;73.60
79055;DHT22;68452;47.186;-1.528;2023-05-10T11:35:40;16.20;72.70
79055;DHT22;68452;47.186;-1.528;2023-05-10T11:38:11;16.50;74.20
79055;DHT22;68452;47.186;-1.528;2023-05-10T11:40:38;16.90;74.00
79055;DHT22;68452;47.186;-1.528;2023-05-10T11:43:04;17.30;71.10
79055;DHT22;68452;47.186;-1.528;2023-05-10T11:45:34;17.30;69.10
79055;DHT22;68452;47.186;-1.528;2023-05-10T11:48:01;17.30;69.70
79055;DHT22;68452;47.186;-1.528;2023-05-10T11:50:27;17.30;68.20
79055;DHT22;68452;47.186;-1.528;2023-05-10T11:52:57;17.70;69.00
79055;DHT22;68452;47.186;-1.528;2023-05-10T11:55:24;18.00;66.20
79055;DHT22;68452;47.186;-1.528;2023-05-10T11:57:54;17.80;64.90
79055;DHT22;68452;47.186;-1.528;2023-05-10T12:00:20;17.60;65.50
79055;DHT22;68452;47.186;-1.528;2023-05-10T12:02:47;17.50;66.70
79055;DHT22;68452;47.186;-1.528;2023-05-10T12:05:13;18.00;68.00
79055;DHT22;68452;47.186;-1.528;2023-05-10T12:07:39;18.30;61.60
79055;DHT22;68452;47.186;-1.528;2023-05-10T12:10:06;18.50;61.40
79055;DHT22;68452;47.186;-1.528;2023-05-10T12:12:44;18.70;61.40
79055;DHT22;68452;47.186;-1.528;2023-05-10T12:15:11;19.00;61.10
79055;DHT22;68452;47.186;-1.528;2023-05-10T12:17:39;19.00;58.90
79055;DHT22;68452;47.186;-1.528;2023-05-10T12:20:20;18.80;58.30
79055;DHT22;68452;47.186;-1.528;2023-05-10T12:22:48;19.00;59.00
79055;DHT22;68452;47.186;-1.528;2023-05-10T12:25:14;18.90;57.00
79055;DHT22;68452;47.186;-1.528;2023-05-10T12:27:47;19.00;57.10
79055;DHT22;68452;47.186;-1.528;2023-05-10T12:30:25;18.90;58.30
79055;DHT22;68452;47.186;-1.528;2023-05-10T12:32:52;19.10;58.90
79055;DHT22;68452;47.186;-1.528;2023-05-10T12:35:18;19.40;59.20
79055;DHT22;68452;47.186;-1.528;2023-05-10T12:37:52;19.60;57.90
79055;DHT22;68452;47.186;-1.528;2023-05-10T12:40:21;19.60;54.60
79055;DHT22;68452;47.186;-1.528;2023-05-10T12:42:47;19.60;57.50
79055;DHT22;68452;47.186;-1.528;2023-05-10T12:45:14;19.40;58.40
79055;DHT22;68452;47.186;-1.528;2023-05-10T12:47:40;19.00;56.00
79055;DHT22;68452;47.186;-1.528;2023-05-10T12:50:06;18.90;58.00
79055;DHT22;68452;47.186;-1.528;2023-05-10T12:52:32;19.00;58.50
79055;DHT22;68452;47.186;-1.528;2023-05-10T12:54:59;19.00;57.60
79055;DHT22;68452;47.186;-1.528;2023-05-10T12:57:25;18.80;57.00
79055;DHT22;68452;47.186;-1.528;2023-05-10T12:59:51;18.70;58.40
79055;DHT22;68452;47.186;-1.528;2023-05-10T13:02:17;18.80;58.50
79055;DHT22;68452;47.186;-1.528;2023-05-10T13:04:47;19.20;59.50
79055;DHT22;68452;47.186;-1.528;2023-05-10T13:07:13;19.60;56.40
79055;DHT22;68452;47.186;-1.528;2023-05-10T13:09:39;19.50;55.20
79055;DHT22;68452;47.186;-1.528;2023-05-10T13:12:05;19.10;55.80
79055;DHT22;68452;47.186;-1.528;2023-05-10T13:14:31;19.10;57.10
79055;DHT22;68452;47.186;-1.528;2023-05-10T13:16:57;19.40;55.50
79055;DHT22;68452;47.186;-1.528;2023-05-10T13:19:23;19.70;56.00
79055;DHT22;68452;47.186;-1.528;2023-05-10T13:21:49;20.10;55.00
79055;DHT22;68452;47.186;-1.528;2023-05-10T13:24:14;20.80;53.60
79055;DHT22;68452;47.186;-1.528;2023-05-10T13:26:40;20.90;51.80
79055;DHT22;68452;47.186;-1.528;2023-05-10T13:29:07;20.40;54.00
79055;DHT22;68452;47.186;-1.528;2023-05-10T13:31:33;20.80;53.50
79055;DHT22;68452;47.186;-1.528;2023-05-10T13:34:00;22.00;52.70
79055;DHT22;68452;47.186;-1.528;2023-05-10T13:36:26;23.00;50.10
79055;DHT22;68452;47.186;-1.528;2023-05-10T13:38:51;23.30;48.10
79055;DHT22;68452;47.186;-1.528;2023-05-10T13:41:17;22.80;48.10
79055;DHT22;68452;47.186;-1.528;2023-05-10T13:43:43;21.90;50.60
79055;DHT22;68452;47.186;-1.528;2023-05-10T13:46:09;22.10;50.10
79055;DHT22;68452;47.186;-1.528;2023-05-10T13:48:35;22.00;50.00
79055;DHT22;68452;47.186;-1.528;2023-05-10T13:51:02;21.40;50.70
79055;DHT22;68452;47.186;-1.528;2023-05-10T13:53:28;21.20;51.50
79055;DHT22;68452;47.186;-1.528;2023-05-10T13:55:54;21.10;52.20
79055;DHT22;68452;47.186;-1.528;2023-05-10T13:58:20;21.50;51.50
79055;DHT22;68452;47.186;-1.528;2023-05-10T14:00:45;21.20;50.70
79055;DHT22;68452;47.186;-1.528;2023-05-10T14:03:11;20.50;54.40
79055;DHT22;68452;47.186;-1.528;2023-05-10T14:05:37;19.90;55.80
79055;DHT22;68452;47.186;-1.528;2023-05-10T14:08:03;19.40;57.80
79055;DHT22;68452;47.186;-1.528;2023-05-10T14:10:29;18.90;59.40
79055;DHT22;68452;47.186;-1.528;2023-05-10T14:12:55;18.50;60.90
79055;DHT22;68452;47.186;-1.528;2023-05-10T14:15:21;18.10;59.80
79055;DHT22;68452;47.186;-1.528;2023-05-10T14:17:47;17.80;60.60
79055;DHT22;68452;47.186;-1.528;2023-05-10T14:20:13;17.50;60.40
79055;DHT22;68452;47.186;-1.528;2023-05-10T14:22:39;17.20;59.50
79055;DHT22;68452;47.186;-1.528;2023-05-10T14:25:06;17.00;59.80
79055;DHT22;68452;47.186;-1.528;2023-05-10T14:27:32;16.90;61.60
79055;DHT22;68452;47.186;-1.528;2023-05-10T14:29:58;16.80;63.00
79055;DHT22;68452;47.186;-1.528;2023-05-10T14:32:23;16.70;67.30
79055;DHT22;68452;47.186;-1.528;2023-05-10T14:34:49;16.20;74.00
79055;DHT22;68452;47.186;-1.528;2023-05-10T14:37:16;15.60;78.00
79055;DHT22;68452;47.186;-1.528;2023-05-10T14:39:42;15.40;80.50
79055;DHT22;68452;47.186;-1.528;2023-05-10T14:42:08;15.40;81.60
79055;DHT22;68452;47.186;-1.528;2023-05-10T14:44:34;15.40;81.30
79055;DHT22;68452;47.186;-1.528;2023-05-10T14:47:00;15.50;82.10
79055;DHT22;68452;47.186;-1.528;2023-05-10T14:49:26;16.20;82.00
79055;DHT22;68452;47.186;-1.528;2023-05-10T14:51:52;16.70;79.50
79055;DHT22;68452;47.186;-1.528;2023-05-10T14:54:18;16.70;77.10
79055;DHT22;68452;47.186;-1.528;2023-05-10T14:56:44;16.60;78.70
79055;DHT22;68452;47.186;-1.528;2023-05-10T14:59:10;16.30;78.30
79055;DHT22;68452;47.186;-1.528;2023-05-10T15:01:36;16.20;78.20
79055;DHT22;68452;47.186;-1.528;2023-05-10T15:04:06;16.20;79.30
79055;DHT22;68452;47.186;-1.528;2023-05-10T15:06:33;16.10;80.60
79055;DHT22;68452;47.186;-1.528;2023-05-10T15:08:59;16.10;79.80
79055;DHT22;68452;47.186;-1.528;2023-05-10T15:11:25;16.20;79.50
79055;DHT22;68452;47.186;-1.528;2023-05-10T15:13:51;16.60;80.40
79055;DHT22;68452;47.186;-1.528;2023-05-10T15:16:17;17.00;81.00
79055;DHT22;68452;47.186;-1.528;2023-05-10T15:18:44;17.30;80.20
79055;DHT22;68452;47.186;-1.528;2023-05-10T15:21:11;17.40;78.40
79055;DHT22;68452;47.186;-1.528;2023-05-10T15:23:37;17.20;72.90
79055;DHT22;68452;47.186;-1.528;2023-05-10T15:26:03;17.10;74.60
79055;DHT22;68452;47.186;-1.528;2023-05-10T15:28:29;17.10;74.40
79055;DHT22;68452;47.186;-1.528;2023-05-10T15:30:56;17.10;72.60
79055;DHT22;68452;47.186;-1.528;2023-05-10T15:33:22;17.00;74.30
79055;DHT22;68452;47.186;-1.528;2023-05-10T15:35:48;16.90;73.60
79055;DHT22;68452;47.186;-1.528;2023-05-10T15:38:14;16.80;72.70
79055;DHT22;68452;47.186;-1.528;2023-05-10T15:40:40;16.70;73.20
79055;DHT22;68452;47.186;-1.528;2023-05-10T15:43:06;16.70;73.80
79055;DHT22;68452;47.186;-1.528;2023-05-10T15:45:32;16.60;71.20
79055;DHT22;68452;47.186;-1.528;2023-05-10T15:47:58;16.50;71.80
79055;DHT22;68452;47.186;-1.528;2023-05-10T15:50:25;16.40;72.60
79055;DHT22;68452;47.186;-1.528;2023-05-10T15:52:51;16.50;73.10
79055;DHT22;68452;47.186;-1.528;2023-05-10T15:55:18;16.60;73.10